sensor_id;sensor_type;location;lat;lon;timestamp;temperature;humidity
77039;DHT22;65970;50.476;4.840;2023-04-25T00:02:00;10.00;81.10
77039;DHT22;65970;50.476;4.840;2023-04-25T00:07:00;10.00;74.80
77039;DHT22;65970;50.476;4.840;2023-04-25T00:12:01;10.00;74.00
77039;DHT22;65970;50.476;4.840;2023-04-25T00:17:01;10.00;76.40
77039;DHT22;65970;50.476;4.840;2023-04-25T00:22:02;10.00;78.20
77039;DHT22;65970;50.476;4.840;2023-04-25T00:27:02;10.00;81.40
77039;DHT22;65970;50.476;4.840;2023-04-25T00:32:03;10.00;82.30
77039;DHT22;65970;50.476;4.840;2023-04-25T00:37:03;10.00;80.50
77039;DHT22;65970;50.476;4.840;2023-04-25T00:42:03;10.00;80.50
77039;DHT22;65970;50.476;4.840;2023-04-25T00:47:04;9.90;76.50
77039;DHT22;65970;50.476;4.840;2023-04-25T00:52:05;9.90;80.30
77039;DHT22;65970;50.476;4.840;2023-04-25T00:57:05;9.90;81.30
77039;DHT22;65970;50.476;4.840;2023-04-25T01:02:06;10.00;81.70
77039;DHT22;65970;50.476;4.840;2023-04-25T01:07:06;10.00;81.60
77039;DHT22;65970;50.476;4.840;2023-04-25T01:12:07;9.90;76.00
77039;DHT22;65970;50.476;4.840;2023-04-25T01:17:08;9.90;75.80
77039;DHT22;65970;50.476;4.840;2023-04-25T01:22:08;9.90;77.70
77039;DHT22;65970;50.476;4.840;2023-04-25T01:27:09;9.90;75.50
77039;DHT22;65970;50.476;4.840;2023-04-25T01:32:09;10.00;79.90
77039;DHT22;65970;50.476;4.840;2023-04-25T01:37:10;9.90;76.20
77039;DHT22;65970;50.476;4.840;2023-04-25T01:42:11;9.80;75.20
77039;DHT22;65970;50.476;4.840;2023-04-25T01:47:12;9.80;73.40
77039;DHT22;65970;50.476;4.840;2023-04-25T01:52:13;9.80;74.30
77039;DHT22;65970;50.476;4.840;2023-04-25T01:57:13;9.80;74.10
77039;DHT22;65970;50.476;4.840;2023-04-25T02:02:14;9.80;71.70
77039;DHT22;65970;50.476;4.840;2023-04-25T02:07:14;9.80;71.70
77039;DHT22;65970;50.476;4.840;2023-04-25T02:12:15;9.70;71.80
77039;DHT22;65970;50.476;4.840;2023-04-25T02:17:15;9.70;71.70
77039;DHT22;65970;50.476;4.840;2023-04-25T02:22:16;9.70;71.30
77039;DHT22;65970;50.476;4.840;2023-04-25T02:27:16;9.70;72.20
77039;DHT22;65970;50.476;4.840;2023-04-25T02:32:17;9.70;71.20
77039;DHT22;65970;50.476;4.840;2023-04-25T02:37:17;9.70;70.30
77039;DHT22;65970;50.476;4.840;2023-04-25T02:42:18;9.70;72.70
77039;DHT22;65970;50.476;4.840;2023-04-25T02:47:18;9.70;70.90
77039;DHT22;65970;50.476;4.840;2023-04-25T02:52:19;9.60;71.50
77039;DHT22;65970;50.476;4.840;2023-04-25T02:57:19;9.50;70.20
77039;DHT22;65970;50.476;4.840;2023-04-25T03:02:20;9.60;71.50
77039;DHT22;65970;50.476;4.840;2023-04-25T03:07:20;9.40;69.10
77039;DHT22;65970;50.476;4.840;2023-04-25T03:12:20;9.40;71.10
77039;DHT22;65970;50.476;4.840;2023-04-25T03:17:21;9.40;70.70
77039;DHT22;65970;50.476;4.840;2023-04-25T03:22:21;9.40;69.80
77039;DHT22;65970;50.476;4.840;2023-04-25T03:27:22;9.30;70.70
77039;DHT22;65970;50.476;4.840;2023-04-25T03:32:22;9.30;70.50
77039;DHT22;65970;50.476;4.840;2023-04-25T03:37:23;9.30;72.00
77039;DHT22;65970;50.476;4.840;2023-04-25T03:42:23;9.20;70.20
77039;DHT22;65970;50.476;4.840;2023-04-25T03:47:23;9.20;71.40
77039;DHT22;65970;50.476;4.840;2023-04-25T03:52:24;9.20;72.10
77039;DHT22;65970;50.476;4.840;2023-04-25T03:57:24;9.10;69.80
77039;DHT22;65970;50.476;4.840;2023-04-25T04:02:25;9.10;71.20
77039;DHT22;65970;50.476;4.840;2023-04-25T04:07:25;9.10;73.40
77039;DHT22;65970;50.476;4.840;2023-04-25T04:12:26;9.10;73.60
77039;DHT22;65970;50.476;4.840;2023-04-25T04:17:26;9.10;76.50
77039;DHT22;65970;50.476;4.840;2023-04-25T04:22:26;9.10;76.30
77039;DHT22;65970;50.476;4.840;2023-04-25T04:27:28;9.10;79.10
77039;DHT22;65970;50.476;4.840;2023-04-25T04:32:28;9.10;76.70
77039;DHT22;65970;50.476;4.840;2023-04-25T04:37:29;9.10;78.50
77039;DHT22;65970;50.476;4.840;2023-04-25T04:42:30;9.00;78.20
77039;DHT22;65970;50.476;4.840;2023-04-25T04:47:30;9.00;79.30
77039;DHT22;65970;50.476;4.840;2023-04-25T04:52:30;9.10;82.10
77039;DHT22;65970;50.476;4.840;2023-04-25T04:57:31;9.00;80.70
77039;DHT22;65970;50.476;4.840;2023-04-25T05:02:31;8.90;82.20
77039;DHT22;65970;50.476;4.840;2023-04-25T05:07:32;8.90;84.80
77039;DHT22;65970;50.476;4.840;2023-04-25T05:12:32;8.90;84.00
77039;DHT22;65970;50.476;4.840;2023-04-25T05:17:32;8.90;81.90
77039;DHT22;65970;50.476;4.840;2023-04-25T05:22:33;8.90;82.50
77039;DHT22;65970;50.476;4.840;2023-04-25T05:27:33;8.90;86.10
77039;DHT22;65970;50.476;4.840;2023-04-25T05:32:34;8.90;84.40
77039;DHT22;65970;50.476;4.840;2023-04-25T05:37:34;8.90;86.10
77039;DHT22;65970;50.476;4.840;2023-04-25T05:42:35;8.90;87.10
77039;DHT22;65970;50.476;4.840;2023-04-25T05:47:35;8.90;88.40
77039;DHT22;65970;50.476;4.840;2023-04-25T05:52:35;8.90;85.80
77039;DHT22;65970;50.476;4.840;2023-04-25T05:57:36;8.90;86.50
77039;DHT22;65970;50.476;4.840;2023-04-25T06:02:36;8.90;85.80
77039;DHT22;65970;50.476;4.840;2023-04-25T06:07:37;8.90;86.60
77039;DHT22;65970;50.476;4.840;2023-04-25T06:12:37;8.90;83.00
77039;DHT22;65970;50.476;4.840;2023-04-25T06:17:38;8.90;83.10
77039;DHT22;65970;50.476;4.840;2023-04-25T06:22:38;9.00;83.80
77039;DHT22;65970;50.476;4.840;2023-04-25T06:27:38;9.00;82.40
77039;DHT22;65970;50.476;4.840;2023-04-25T06:32:39;9.00;80.30
77039;DHT22;65970;50.476;4.840;2023-04-25T06:37:39;9.00;80.30
77039;DHT22;65970;50.476;4.840;2023-04-25T06:42:40;9.00;80.00
77039;DHT22;65970;50.476;4.840;2023-04-25T06:47:40;8.90;78.00
77039;DHT22;65970;50.476;4.840;2023-04-25T06:52:41;9.00;80.00
77039;DHT22;65970;50.476;4.840;2023-04-25T06:57:41;9.00;82.40
77039;DHT22;65970;50.476;4.840;2023-04-25T07:02:41;9.10;82.10
77039;DHT22;65970;50.476;4.840;2023-04-25T07:07:42;9.10;78.80
77039;DHT22;65970;50.476;4.840;2023-04-25T07:12:42;9.10;76.90
77039;DHT22;65970;50.476;4.840;2023-04-25T07:17:43;9.10;74.40
77039;DHT22;65970;50.476;4.840;2023-04-25T07:22:43;9.10;73.30
77039;DHT22;65970;50.476;4.840;2023-04-25T07:27:44;9.00;73.40
77039;DHT22;65970;50.476;4.840;2023-04-25T07:32:44;9.00;72.60
77039;DHT22;65970;50.476;4.840;2023-04-25T07:37:44;9.00;72.30
77039;DHT22;65970;50.476;4.840;2023-04-25T07:42:45;9.00;73.10
77039;DHT22;65970;50.476;4.840;2023-04-25T07:52:57;9.00;76.00
77039;DHT22;65970;50.476;4.840;2023-04-25T08:08:18;9.20;73.70
77039;DHT22;65970;50.476;4.840;2023-04-25T08:13:19;9.20;71.00
77039;DHT22;65970;50.476;4.840;2023-04-25T08:18:19;9.20;69.50
77039;DHT22;65970;50.476;4.840;2023-04-25T08:23:20;9.20;68.40
77039;DHT22;65970;50.476;4.840;2023-04-25T08:28:20;9.30;66.40
77039;DHT22;65970;50.476;4.840;2023-04-25T08:33:21;9.30;69.00
77039;DHT22;65970;50.476;4.840;2023-04-25T08:38:21;9.40;67.70
77039;DHT22;65970;50.476;4.840;2023-04-25T08:43:22;9.50;66.00
77039;DHT22;65970;50.476;4.840;2023-04-25T08:48:23;9.50;63.60
77039;DHT22;65970;50.476;4.840;2023-04-25T08:53:25;9.50;65.40
77039;DHT22;65970;50.476;4.840;2023-04-25T08:58:26;9.50;65.90
77039;DHT22;65970;50.476;4.840;2023-04-25T09:03:27;9.50;62.50
77039;DHT22;65970;50.476;4.840;2023-04-25T09:08:28;9.50;61.40
77039;DHT22;65970;50.476;4.840;2023-04-25T09:13:28;9.60;65.40
77039;DHT22;65970;50.476;4.840;2023-04-25T09:18:30;9.60;66.70
77039;DHT22;65970;50.476;4.840;2023-04-25T09:23:31;9.70;61.80
77039;DHT22;65970;50.476;4.840;2023-04-25T09:28:38;9.70;63.80
77039;DHT22;65970;50.476;4.840;2023-04-25T09:33:40;9.70;61.80
77039;DHT22;65970;50.476;4.840;2023-04-25T09:38:41;9.80;61.90
77039;DHT22;65970;50.476;4.840;2023-04-25T09:43:42;9.80;62.00
77039;DHT22;65970;50.476;4.840;2023-04-25T09:48:49;9.80;58.90
77039;DHT22;65970;50.476;4.840;2023-04-25T09:53:49;10.00;62.50
77039;DHT22;65970;50.476;4.840;2023-04-25T09:58:50;10.10;61.90
77039;DHT22;65970;50.476;4.840;2023-04-25T10:03:53;10.10;57.90
77039;DHT22;65970;50.476;4.840;2023-04-25T10:08:56;10.20;56.60
77039;DHT22;65970;50.476;4.840;2023-04-25T10:13:57;10.30;57.10
77039;DHT22;65970;50.476;4.840;2023-04-25T10:18:57;10.50;55.90
77039;DHT22;65970;50.476;4.840;2023-04-25T10:23:58;10.70;52.90
77039;DHT22;65970;50.476;4.840;2023-04-25T10:28:59;10.70;51.90
77039;DHT22;65970;50.476;4.840;2023-04-25T10:34:00;10.70;53.00
77039;DHT22;65970;50.476;4.840;2023-04-25T10:39:04;10.70;53.20
77039;DHT22;65970;50.476;4.840;2023-04-25T10:44:05;10.50;57.00
77039;DHT22;65970;50.476;4.840;2023-04-25T10:49:05;10.40;58.30
77039;DHT22;65970;50.476;4.840;2023-04-25T10:54:08;10.50;67.30
77039;DHT22;65970;50.476;4.840;2023-04-25T10:59:10;10.60;61.70
77039;DHT22;65970;50.476;4.840;2023-04-25T11:09:19;10.50;56.20
77039;DHT22;65970;50.476;4.840;2023-04-25T11:14:23;10.50;57.70
77039;DHT22;65970;50.476;4.840;2023-04-25T11:19:26;10.50;57.00
77039;DHT22;65970;50.476;4.840;2023-04-25T11:24:27;10.50;59.00
77039;DHT22;65970;50.476;4.840;2023-04-25T11:29:28;10.40;58.40
77039;DHT22;65970;50.476;4.840;2023-04-25T11:34:29;10.30;57.70
77039;DHT22;65970;50.476;4.840;2023-04-25T11:39:30;10.30;58.90
77039;DHT22;65970;50.476;4.840;2023-04-25T11:44:30;10.30;56.10
77039;DHT22;65970;50.476;4.840;2023-04-25T11:49:31;10.30;54.80
77039;DHT22;65970;50.476;4.840;2023-04-25T11:54:31;10.40;55.20
77039;DHT22;65970;50.476;4.840;2023-04-25T11:59:34;10.40;55.60
77039;DHT22;65970;50.476;4.840;2023-04-25T12:04:35;10.50;54.40
77039;DHT22;65970;50.476;4.840;2023-04-25T12:09:35;10.80;65.50
77039;DHT22;65970;50.476;4.840;2023-04-25T12:14:36;11.40;67.00
77039;DHT22;65970;50.476;4.840;2023-04-25T12:19:37;11.80;54.90
77039;DHT22;65970;50.476;4.840;2023-04-25T12:24:37;12.00;48.30
77039;DHT22;65970;50.476;4.840;2023-04-25T12:29:38;12.30;51.20
77039;DHT22;65970;50.476;4.840;2023-04-25T12:34:38;12.60;46.90
77039;DHT22;65970;50.476;4.840;2023-04-25T12:39:39;13.00;47.10
77039;DHT22;65970;50.476;4.840;2023-04-25T12:44:39;13.00;39.40
77039;DHT22;65970;50.476;4.840;2023-04-25T12:49:39;13.00;35.60
77039;DHT22;65970;50.476;4.840;2023-04-25T12:54:40;12.80;34.10
77039;DHT22;65970;50.476;4.840;2023-04-25T12:59:40;12.80;33.80
77039;DHT22;65970;50.476;4.840;2023-04-25T13:04:41;12.60;34.20
77039;DHT22;65970;50.476;4.840;2023-04-25T13:09:41;12.50;36.90
77039;DHT22;65970;50.476;4.840;2023-04-25T13:14:41;12.20;35.80
77039;DHT22;65970;50.476;4.840;2023-04-25T13:19:42;12.00;36.80
77039;DHT22;65970;50.476;4.840;2023-04-25T13:24:42;11.90;38.20
77039;DHT22;65970;50.476;4.840;2023-04-25T13:29:43;11.90;41.40
77039;DHT22;65970;50.476;4.840;2023-04-25T13:34:43;12.10;41.50
77039;DHT22;65970;50.476;4.840;2023-04-25T13:39:45;12.40;47.70
77039;DHT22;65970;50.476;4.840;2023-04-25T13:44:45;12.90;40.90
77039;DHT22;65970;50.476;4.840;2023-04-25T13:49:46;13.00;36.20
77039;DHT22;65970;50.476;4.840;2023-04-25T13:54:46;13.10;33.30
77039;DHT22;65970;50.476;4.840;2023-04-25T13:59:46;13.10;31.80
77039;DHT22;65970;50.476;4.840;2023-04-25T14:04:47;13.00;30.80
77039;DHT22;65970;50.476;4.840;2023-04-25T14:09:47;13.00;30.90
77039;DHT22;65970;50.476;4.840;2023-04-25T14:14:48;13.00;31.50
77039;DHT22;65970;50.476;4.840;2023-04-25T14:19:49;12.90;29.80
77039;DHT22;65970;50.476;4.840;2023-04-25T14:24:49;12.90;31.40
77039;DHT22;65970;50.476;4.840;2023-04-25T14:29:50;12.90;30.00
77039;DHT22;65970;50.476;4.840;2023-04-25T14:34:50;12.90;29.50
77039;DHT22;65970;50.476;4.840;2023-04-25T14:39:51;12.90;29.80
77039;DHT22;65970;50.476;4.840;2023-04-25T14:44:51;13.00;31.00
77039;DHT22;65970;50.476;4.840;2023-04-25T14:49:51;12.90;29.10
77039;DHT22;65970;50.476;4.840;2023-04-25T14:54:52;12.90;28.00
77039;DHT22;65970;50.476;4.840;2023-04-25T14:59:52;12.80;26.70
77039;DHT22;65970;50.476;4.840;2023-04-25T15:04:53;12.70;25.60
77039;DHT22;65970;50.476;4.840;2023-04-25T15:09:53;12.70;25.20
77039;DHT22;65970;50.476;4.840;2023-04-25T15:14:54;12.70;24.30
77039;DHT22;65970;50.476;4.840;2023-04-25T15:19:54;12.80;24.40
77039;DHT22;65970;50.476;4.840;2023-04-25T15:24:55;12.70;22.70
77039;DHT22;65970;50.476;4.840;2023-04-25T15:29:55;12.70;21.30
77039;DHT22;65970;50.476;4.840;2023-04-25T15:34:56;12.70;23.50
77039;DHT22;65970;50.476;4.840;2023-04-25T15:40:06;12.70;23.50
77039;DHT22;65970;50.476;4.840;2023-04-25T15:45:08;12.70;24.20
77039;DHT22;65970;50.476;4.840;2023-04-25T15:50:08;12.60;25.40
77039;DHT22;65970;50.476;4.840;2023-04-25T15:55:09;12.50;23.70
77039;DHT22;65970;50.476;4.840;2023-04-25T16:00:10;12.40;25.10
77039;DHT22;65970;50.476;4.840;2023-04-25T16:05:11;12.30;22.90
77039;DHT22;65970;50.476;4.840;2023-04-25T16:10:12;12.30;23.50
77039;DHT22;65970;50.476;4.840;2023-04-25T16:15:12;12.20;22.70
77039;DHT22;65970;50.476;4.840;2023-04-25T16:20:13;12.10;23.80
77039;DHT22;65970;50.476;4.840;2023-04-25T16:25:13;12.10;24.30
77039;DHT22;65970;50.476;4.840;2023-04-25T16:30:14;12.00;22.70
77039;DHT22;65970;50.476;4.840;2023-04-25T16:35:14;12.00;22.80
77039;DHT22;65970;50.476;4.840;2023-04-25T16:40:15;12.00;23.80
77039;DHT22;65970;50.476;4.840;2023-04-25T16:45:15;11.80;23.90
77039;DHT22;65970;50.476;4.840;2023-04-25T16:50:17;11.80;23.20
77039;DHT22;65970;50.476;4.840;2023-04-25T16:55:18;11.80;23.10
77039;DHT22;65970;50.476;4.840;2023-04-25T17:00:18;11.70;23.90
77039;DHT22;65970;50.476;4.840;2023-04-25T17:05:19;11.70;22.20
77039;DHT22;65970;50.476;4.840;2023-04-25T17:10:19;11.60;22.40
77039;DHT22;65970;50.476;4.840;2023-04-25T17:15:20;11.60;24.50
77039;DHT22;65970;50.476;4.840;2023-04-25T17:20:20;11.50;25.40
77039;DHT22;65970;50.476;4.840;2023-04-25T17:25:21;11.50;25.30
77039;DHT22;65970;50.476;4.840;2023-04-25T17:30:21;11.40;26.20
77039;DHT22;65970;50.476;4.840;2023-04-25T17:35:21;11.40;27.00
77039;DHT22;65970;50.476;4.840;2023-04-25T17:40:22;11.30;26.80
77039;DHT22;65970;50.476;4.840;2023-04-25T17:45:22;11.20;25.10
77039;DHT22;65970;50.476;4.840;2023-04-25T17:50:23;11.10;26.90
77039;DHT22;65970;50.476;4.840;2023-04-25T17:55:23;11.00;26.10
77039;DHT22;65970;50.476;4.840;2023-04-25T18:00:24;11.00;26.40
77039;DHT22;65970;50.476;4.840;2023-04-25T18:05:24;10.90;28.70
77039;DHT22;65970;50.476;4.840;2023-04-25T18:10:24;10.90;27.50
77039;DHT22;65970;50.476;4.840;2023-04-25T18:15:25;10.80;27.70
77039;DHT22;65970;50.476;4.840;2023-04-25T18:20:25;10.70;28.50
77039;DHT22;65970;50.476;4.840;2023-04-25T18:25:26;10.70;30.60
77039;DHT22;65970;50.476;4.840;2023-04-25T18:30:26;10.70;29.10
77039;DHT22;65970;50.476;4.840;2023-04-25T18:35:27;10.70;28.80
77039;DHT22;65970;50.476;4.840;2023-04-25T18:40:27;10.60;29.20
77039;DHT22;65970;50.476;4.840;2023-04-25T18:45:27;10.60;26.20
77039;DHT22;65970;50.476;4.840;2023-04-25T18:50:28;10.50;28.00
77039;DHT22;65970;50.476;4.840;2023-04-25T18:55:28;10.50;28.40
77039;DHT22;65970;50.476;4.840;2023-04-25T19:00:29;10.40;27.50
77039;DHT22;65970;50.476;4.840;2023-04-25T19:05:29;10.30;28.20
77039;DHT22;65970;50.476;4.840;2023-04-25T19:10:30;10.30;28.20
77039;DHT22;65970;50.476;4.840;2023-04-25T19:15:30;10.10;28.30
77039;DHT22;65970;50.476;4.840;2023-04-25T19:20:33;10.00;27.50
77039;DHT22;65970;50.476;4.840;2023-04-25T19:25:34;9.90;29.00
77039;DHT22;65970;50.476;4.840;2023-04-25T19:30:34;9.80;28.50
77039;DHT22;65970;50.476;4.840;2023-04-25T19:35:34;9.70;28.80
77039;DHT22;65970;50.476;4.840;2023-04-25T19:40:35;9.70;29.00
77039;DHT22;65970;50.476;4.840;2023-04-25T19:45:36;9.50;28.90
77039;DHT22;65970;50.476;4.840;2023-04-25T19:50:36;9.50;29.70
77039;DHT22;65970;50.476;4.840;2023-04-25T19:55:36;9.40;29.10
77039;DHT22;65970;50.476;4.840;2023-04-25T20:00:37;9.30;29.90
77039;DHT22;65970;50.476;4.840;2023-04-25T20:05:37;9.30;29.50
77039;DHT22;65970;50.476;4.840;2023-04-25T20:10:38;9.30;31.50
77039;DHT22;65970;50.476;4.840;2023-04-25T20:15:38;9.20;31.10
77039;DHT22;65970;50.476;4.840;2023-04-25T20:20:39;9.20;32.30
77039;DHT22;65970;50.476;4.840;2023-04-25T20:25:39;9.00;31.50
77039;DHT22;65970;50.476;4.840;2023-04-25T20:30:39;8.90;31.60
77039;DHT22;65970;50.476;4.840;2023-04-25T20:35:40;8.80;31.00
77039;DHT22;65970;50.476;4.840;2023-04-25T20:40:40;8.80;33.20
77039;DHT22;65970;50.476;4.840;2023-04-25T20:45:41;8.80;33.10
77039;DHT22;65970;50.476;4.840;2023-04-25T20:50:41;8.70;32.70
77039;DHT22;65970;50.476;4.840;2023-04-25T20:55:41;8.60;32.50
77039;DHT22;65970;50.476;4.840;2023-04-25T21:00:42;8.50;33.30
77039;DHT22;65970;50.476;4.840;2023-04-25T21:05:42;8.50;33.10
77039;DHT22;65970;50.476;4.840;2023-04-25T21:10:43;8.40;32.30
77039;DHT22;65970;50.476;4.840;2023-04-25T21:15:43;8.30;32.10
77039;DHT22;65970;50.476;4.840;2023-04-25T21:20:44;8.30;32.60
77039;DHT22;65970;50.476;4.840;2023-04-25T21:25:44;8.40;33.30
77039;DHT22;65970;50.476;4.840;2023-04-25T21:30:45;8.40;32.30
77039;DHT22;65970;50.476;4.840;2023-04-25T21:35:45;8.30;33.30
77039;DHT22;65970;50.476;4.840;2023-04-25T21:40:46;8.20;33.60
77039;DHT22;65970;50.476;4.840;2023-04-25T21:45:46;8.10;33.50
77039;DHT22;65970;50.476;4.840;2023-04-25T21:50:47;8.00;33.30
77039;DHT22;65970;50.476;4.840;2023-04-25T21:55:47;8.00;33.30
77039;DHT22;65970;50.476;4.840;2023-04-25T22:00:47;8.00;36.20
77039;DHT22;65970;50.476;4.840;2023-04-25T22:05:48;8.00;36.50
77039;DHT22;65970;50.476;4.840;2023-04-25T22:10:48;7.90;34.30
77039;DHT22;65970;50.476;4.840;2023-04-25T22:15:49;7.70;35.30
77039;DHT22;65970;50.476;4.840;2023-04-25T22:20:49;7.60;34.40
77039;DHT22;65970;50.476;4.840;2023-04-25T22:25:50;7.50;34.90
77039;DHT22;65970;50.476;4.840;2023-04-25T22:30:50;7.60;35.00
77039;DHT22;65970;50.476;4.840;2023-04-25T22:35:50;7.70;35.90
77039;DHT22;65970;50.476;4.840;2023-04-25T22:40:51;7.70;35.80
77039;DHT22;65970;50.476;4.840;2023-04-25T22:45:51;7.70;36.60
77039;DHT22;65970;50.476;4.840;2023-04-25T22:55:55;7.70;35.90
77039;DHT22;65970;50.476;4.840;2023-04-25T23:00:55;7.70;36.20
77039;DHT22;65970;50.476;4.840;2023-04-25T23:05:56;7.70;36.70
77039;DHT22;65970;50.476;4.840;2023-04-25T23:10:56;7.70;37.00
77039;DHT22;65970;50.476;4.840;2023-04-25T23:16:03;7.60;36.30
77039;DHT22;65970;50.476;4.840;2023-04-25T23:21:03;7.50;35.70
77039;DHT22;65970;50.476;4.840;2023-04-25T23:26:07;7.40;38.20
77039;DHT22;65970;50.476;4.840;2023-04-25T23:31:08;7.40;38.90
77039;DHT22;65970;50.476;4.840;2023-04-25T23:36:18;7.30;39.20
77039;DHT22;65970;50.476;4.840;2023-04-25T23:41:18;7.30;39.70
77039;DHT22;65970;50.476;4.840;2023-04-25T23:46:19;7.20;39.20
77039;DHT22;65970;50.476;4.840;2023-04-25T23:51:19;7.20;37.20
77039;DHT22;65970;50.476;4.840;2023-04-25T23:56:19;7.00;37.60
